Guymon Municipal Airport
KGUY : now visible

Airfield :











YOU CAN JOIN US ON...

 
LOGIN :

Register | Disclaimer

   EN    FR    IT 

 









Legend :    VFR   Marginal VFR   IFR   Intensive IFR   Very Intensive IFR
Visi :
Ceiling :
>= 8 km
>= 3000ft
5 to 8 km
1000 to 3000 ft
1500m to 5 km
500 to 1000 ft
800 to 1500m
200 to 500 ft
< 800m
< 200 ft
Symbols :   Thunderstorms  Fog  Heavy snow  Heavy precipitations  Wind > 20 kt







- Airport Elevation : 3123 ft


KGUY - Guymon Municipal

CURRENT METAR :
  • 201553Z AUTO 19012KT 10SM CLR 21/16 A2997 RMK AO2 SLP108 T02110156

EXPIRED METARs :
  • 201453Z AUTO 20010KT 10SM CLR 20/16 A2997 RMK AO2 RAB12E22 SLP109 P0000 60001 T02000156 50004
  • 201353Z AUTO 19010KT 10SM CLR 18/16 A2997 RMK AO2 SLP111 T01780156

TAF KGUY
Valid from the 20 at 12:00 until the 21 at 12:00 UTC


201135Z 2012/2112 19005KT P6SM SCT035 BKN100
TEMPO 2012/2013 -RA BKN080
FM202200 18014KT P6SM SCT100
FM202300 18015KT P6SM BKN100
PROB30 2023/2103 4SM TSRA BKN080CB
FM210300 18014G22KT P6SM SCT100
No reported NOTAMs for that airfield.



MET'MAP, your aeronautical weather chart ! - Copyright ORBIFLY December 2007 - Disclaimer

ORBIFLY MET'MAP TEAM :

Programming & Development : Alexandra Zaïnal
Concept & Development : Baudouin d'Aumeries
Co-Development & Prog : Marc-Olivier Méhu
Technical & hardware support : Manuel Goepfert

Contact : metmap@orbifly.com




SOURCES & CREDITS :

   NOAA       Earth
Advisory